Shady Beach, South Dakota
Current Conditions -  °F | °C
As of 3:14 AM on Sunday 28 Dec 2014 (Local Time) from KVVV Reporting Station
Clear Clear  
Wind Chill:   Ceiling: Unl
Heat Index: 16°   Visibility: 10mi
Dew Point: 12°   Wind: 8mph
Humidity: 86%   Direction: 290°WNW
Pressure: 30.07"   Gusts: NA
Location:  45.3641°N, 96.6682°W
Report Text: KVVV 280914Z AUTO 29007KT 10SM CLR M09/M11 A3007 RMK AO2
Loading
Personal Weather Stations






























Interactive Weather Map New forecast layout! Learn more

10-Day Weather Forecast

Advertisements
Track Severe Weather on mobile